createdAt,value
2022-12-06T00:01:42.276Z,62.50
2022-12-06T00:04:13.957Z,62.50
2022-12-06T00:06:47.955Z,62.50
2022-12-06T00:09:20.632Z,62.50
2022-12-06T00:11:49.487Z,62.50
2022-12-06T00:14:18.934Z,62.50
2022-12-06T00:16:48.315Z,62.50
2022-12-06T00:19:20.018Z,62.50
2022-12-06T00:21:51.081Z,62.50
2022-12-06T00:24:22.470Z,62.50
2022-12-06T00:26:52.612Z,62.50
2022-12-06T00:29:24.185Z,62.50
2022-12-06T00:31:53.100Z,62.40
2022-12-06T00:34:21.952Z,62.40
2022-12-06T00:36:52.009Z,62.40
2022-12-06T00:39:20.800Z,62.50
2022-12-06T00:41:49.445Z,62.50
2022-12-06T00:44:18.278Z,62.50
2022-12-06T00:46:47.048Z,62.50
2022-12-06T00:49:15.804Z,62.40
2022-12-06T00:51:44.467Z,62.30
2022-12-06T00:54:16.470Z,62.20
2022-12-06T00:56:45.139Z,62.30
2022-12-06T00:59:14.054Z,62.30
2022-12-06T01:01:43.342Z,62.40
2022-12-06T01:04:12.080Z,62.40
2022-12-06T01:06:40.964Z,62.40
2022-12-06T01:09:11.576Z,62.40
2022-12-06T01:11:41.495Z,62.50
2022-12-06T01:14:10.219Z,62.50
2022-12-06T01:16:38.878Z,62.50
2022-12-06T01:19:09.209Z,62.50
2022-12-06T01:21:37.863Z,62.50
2022-12-06T01:24:07.250Z,63.30
2022-12-06T01:26:37.014Z,62.40
2022-12-06T01:29:06.978Z,62.40
2022-12-06T01:31:38.783Z,62.30
2022-12-06T01:34:09.474Z,62.30
2022-12-06T01:36:38.065Z,62.30
2022-12-06T01:39:10.750Z,62.20
2022-12-06T01:42:00.007Z,62.20
2022-12-06T01:44:46.132Z,62.20
2022-12-06T01:47:23.775Z,62.10
2022-12-06T01:49:57.267Z,62.10
2022-12-06T01:52:31.528Z,62.10
2022-12-06T01:55:01.714Z,62.10
2022-12-06T01:57:31.396Z,62.20
2022-12-06T02:00:02.444Z,62.20
2022-12-06T02:02:39.426Z,62.10
2022-12-06T02:05:09.878Z,62.20
2022-12-06T02:07:39.083Z,62.20
2022-12-06T02:10:09.667Z,62.10
2022-12-06T02:12:38.333Z,62.20
2022-12-06T02:15:10.340Z,62.10
2022-12-06T02:17:46.615Z,62.20
2022-12-06T02:20:26.795Z,62.10
2022-12-06T02:23:25.407Z,62.20
2022-12-06T02:26:18.030Z,62.30
2022-12-06T02:29:39.325Z,62.40
2022-12-06T02:32:14.590Z,62.40
2022-12-06T02:34:49.007Z,62.40
2022-12-06T02:37:24.086Z,62.40
2022-12-06T02:39:58.124Z,62.40
2022-12-06T02:42:30.694Z,62.40
2022-12-06T02:45:04.724Z,62.40
2022-12-06T02:47:38.380Z,62.50
2022-12-06T02:50:11.979Z,62.40
2022-12-06T02:52:44.453Z,62.30
2022-12-06T02:55:15.033Z,62.20
2022-12-06T02:57:48.538Z,62.20
2022-12-06T03:00:39.032Z,62.30
2022-12-06T03:03:25.813Z,62.20
2022-12-06T03:06:39.986Z,62.20
2022-12-06T03:09:24.594Z,62.30
2022-12-06T03:12:01.699Z,62.30
2022-12-06T03:14:37.131Z,62.30
2022-12-06T03:17:16.395Z,62.40
2022-12-06T03:19:52.779Z,62.40
2022-12-06T03:22:26.964Z,62.30
2022-12-06T03:24:56.369Z,62.20
2022-12-06T03:27:26.578Z,62.20
2022-12-06T03:29:59.313Z,62.20
2022-12-06T03:32:33.783Z,62.30
2022-12-06T03:35:09.803Z,63.10
2022-12-06T03:37:42.188Z,62.40
2022-12-06T03:40:18.590Z,62.30
2022-12-06T03:42:49.123Z,62.20
2022-12-06T03:45:19.025Z,62.20
2022-12-06T03:47:54.695Z,62.10
2022-12-06T03:50:32.024Z,62.10
2022-12-06T03:53:02.618Z,62.10
2022-12-06T03:55:31.166Z,62.10
2022-12-06T03:57:59.835Z,62.10
2022-12-06T04:00:28.466Z,62.10
2022-12-06T04:02:57.022Z,62.10
2022-12-06T04:05:26.959Z,62.10
2022-12-06T04:07:55.589Z,62.20
2022-12-06T04:10:24.457Z,62.10
2022-12-06T04:13:00.665Z,62.10
2022-12-06T04:15:31.699Z,62.10
2022-12-06T04:18:13.520Z,62.10
2022-12-06T04:21:06.518Z,62.10
2022-12-06T04:23:38.659Z,62.20
2022-12-06T04:26:11.331Z,62.20
2022-12-06T04:28:57.808Z,62.20
2022-12-06T04:31:44.216Z,62.20
2022-12-06T04:34:31.009Z,62.30
2022-12-06T04:37:19.131Z,62.30
2022-12-06T04:39:47.765Z,62.30
2022-12-06T04:42:33.733Z,62.20
2022-12-06T04:45:02.417Z,62.20
2022-12-06T04:47:31.234Z,62.20
2022-12-06T04:50:00.065Z,62.20
2022-12-06T04:52:35.197Z,62.20
2022-12-06T04:55:04.439Z,62.20
2022-12-06T04:57:33.077Z,62.20
2022-12-06T05:00:01.804Z,62.20
2022-12-06T05:02:30.708Z,62.20
2022-12-06T05:04:59.241Z,62.20
2022-12-06T05:07:29.123Z,62.20
2022-12-06T05:09:58.135Z,62.20
2022-12-06T05:12:27.019Z,62.20
2022-12-06T05:14:55.649Z,62.20
2022-12-06T05:17:24.274Z,62.20
2022-12-06T05:19:52.846Z,62.10
2022-12-06T05:22:21.388Z,62.00
2022-12-06T05:24:51.826Z,62.00
2022-12-06T05:27:20.323Z,61.90
2022-12-06T05:29:48.904Z,61.90
2022-12-06T05:32:17.536Z,61.90
2022-12-06T05:34:46.123Z,61.90
2022-12-06T05:37:14.623Z,62.00
2022-12-06T05:39:43.295Z,62.00
2022-12-06T05:42:19.885Z,62.00
2022-12-06T05:44:50.935Z,62.00
2022-12-06T05:47:19.491Z,62.00
2022-12-06T05:49:48.026Z,62.00
2022-12-06T05:52:16.690Z,62.00
2022-12-06T05:54:45.290Z,62.00
2022-12-06T05:57:15.259Z,61.80
2022-12-06T05:59:43.946Z,61.80
2022-12-06T06:02:12.559Z,61.80
2022-12-06T06:04:41.195Z,61.80
2022-12-06T06:07:09.810Z,61.80
2022-12-06T06:09:38.403Z,61.80
2022-12-06T06:12:12.267Z,61.80
2022-12-06T06:14:42.818Z,61.90
2022-12-06T06:17:11.383Z,61.90
2022-12-06T06:19:40.828Z,61.90
2022-12-06T06:22:09.430Z,62.00
2022-12-06T06:24:39.027Z,62.00
2022-12-06T06:27:07.958Z,62.00
2022-12-06T06:29:39.576Z,62.00
2022-12-06T06:32:13.774Z,61.80
2022-12-06T06:34:42.531Z,61.90
2022-12-06T06:37:11.193Z,61.80
2022-12-06T06:39:39.774Z,61.80
2022-12-06T06:42:08.415Z,61.80
2022-12-06T06:44:36.943Z,61.80
2022-12-06T06:47:06.095Z,61.90
2022-12-06T06:49:36.075Z,61.90
2022-12-06T06:52:04.733Z,62.00
2022-12-06T06:54:33.246Z,62.00
2022-12-06T06:57:02.905Z,62.70
2022-12-06T06:59:31.528Z,61.80
2022-12-06T07:02:00.146Z,61.80
2022-12-06T07:04:28.818Z,61.80
2022-12-06T07:07:00.265Z,61.90
2022-12-06T07:09:28.874Z,61.90
2022-12-06T07:11:57.502Z,61.90
2022-12-06T07:14:26.038Z,61.90
2022-12-06T07:16:54.686Z,61.90
2022-12-06T07:19:23.269Z,61.90
2022-12-06T07:21:51.936Z,61.90
2022-12-06T07:24:22.175Z,61.90
2022-12-06T07:26:50.837Z,61.90
2022-12-06T07:29:19.346Z,61.90
2022-12-06T07:31:47.974Z,61.80
2022-12-06T07:34:16.722Z,61.60
2022-12-06T07:36:45.252Z,61.70
2022-12-06T07:39:15.116Z,62.60
2022-12-06T07:42:02.541Z,61.90
2022-12-06T07:45:02.345Z,61.80
2022-12-06T07:47:35.054Z,61.70
2022-12-06T07:50:04.399Z,61.70
2022-12-06T07:52:35.369Z,61.80
2022-12-06T07:55:05.750Z,61.80
2022-12-06T07:57:41.566Z,61.90
2022-12-06T08:00:15.580Z,61.90
2022-12-06T08:02:44.598Z,61.90
2022-12-06T08:05:13.898Z,61.90
2022-12-06T08:07:42.613Z,62.00
2022-12-06T08:10:11.335Z,62.00
2022-12-06T08:12:41.335Z,62.10
2022-12-06T08:15:13.189Z,62.10
2022-12-06T08:17:42.163Z,62.20
2022-12-06T08:20:12.569Z,62.10
2022-12-06T08:22:41.293Z,62.10
2022-12-06T08:25:11.100Z,62.00
2022-12-06T08:27:40.963Z,62.10
2022-12-06T08:30:10.405Z,62.10
2022-12-06T08:32:38.991Z,62.10
2022-12-06T08:35:08.540Z,62.10
2022-12-06T08:37:37.067Z,62.20
2022-12-06T08:40:07.209Z,62.10
2022-12-06T08:42:35.771Z,62.20
2022-12-06T08:45:07.125Z,62.20
2022-12-06T08:47:35.880Z,62.20
2022-12-06T08:50:05.077Z,62.20
2022-12-06T08:52:33.621Z,62.30
2022-12-06T08:55:02.232Z,62.30
2022-12-06T08:57:30.732Z,62.20
2022-12-06T08:59:59.619Z,62.20
2022-12-06T09:02:30.022Z,62.20
2022-12-06T09:04:58.615Z,62.10
2022-12-06T09:07:27.482Z,62.10
2022-12-06T09:09:56.489Z,62.10
2022-12-06T09:12:25.324Z,62.10
2022-12-06T09:14:53.886Z,62.10
2022-12-06T09:17:22.485Z,62.10
2022-12-06T09:19:52.780Z,62.10
2022-12-06T09:22:21.320Z,62.20
2022-12-06T09:24:50.309Z,62.10
2022-12-06T09:27:21.343Z,62.10
2022-12-06T09:29:50.076Z,62.10
2022-12-06T09:32:18.644Z,62.10
2022-12-06T09:34:47.214Z,62.10
2022-12-06T09:37:17.317Z,62.10
2022-12-06T09:39:49.305Z,62.20
2022-12-06T09:43:05.326Z,62.20
2022-12-06T09:46:04.946Z,62.20
2022-12-06T09:49:07.492Z,62.20
2022-12-06T09:52:24.783Z,62.20
2022-12-06T09:55:20.228Z,62.10
2022-12-06T09:57:57.604Z,62.10
2022-12-06T10:00:27.361Z,62.10
2022-12-06T10:03:46.136Z,62.10
2022-12-06T10:06:19.026Z,62.20
2022-12-06T10:09:13.306Z,62.10
2022-12-06T10:12:15.183Z,62.20
2022-12-06T10:15:17.389Z,62.10
2022-12-06T10:18:04.757Z,62.20
2022-12-06T10:20:42.945Z,62.10
2022-12-06T10:23:26.639Z,62.10
2022-12-06T10:26:09.096Z,62.20
2022-12-06T10:28:48.358Z,62.10
2022-12-06T10:31:31.976Z,62.10
2022-12-06T10:34:13.634Z,62.90
2022-12-06T10:36:54.640Z,62.10
2022-12-06T10:39:30.155Z,62.10
2022-12-06T10:42:07.646Z,62.20
2022-12-06T10:44:44.237Z,62.10
2022-12-06T10:47:17.371Z,62.10
2022-12-06T10:49:56.632Z,62.00
2022-12-06T10:52:39.710Z,61.80
2022-12-06T10:55:24.676Z,61.80
2022-12-06T10:58:14.813Z,61.90
2022-12-06T11:00:56.070Z,62.00
2022-12-06T11:03:31.906Z,62.00
2022-12-06T11:06:08.549Z,62.00
2022-12-06T11:08:41.668Z,62.00
2022-12-06T11:11:17.857Z,61.90
2022-12-06T11:13:52.301Z,62.00
2022-12-06T11:16:26.328Z,62.00
2022-12-06T11:19:02.191Z,62.00
2022-12-06T11:21:35.555Z,61.90
2022-12-06T11:24:15.558Z,62.00
2022-12-06T11:26:48.072Z,62.00
2022-12-06T11:29:18.395Z,62.10
2022-12-06T11:31:50.825Z,62.10
2022-12-06T11:34:24.023Z,62.20
2022-12-06T11:36:59.795Z,62.00
2022-12-06T11:39:29.939Z,62.00
2022-12-06T11:42:03.399Z,62.00
2022-12-06T11:44:46.416Z,62.10
2022-12-06T11:47:23.222Z,62.10
2022-12-06T11:49:55.783Z,62.00
2022-12-06T11:52:31.970Z,62.10
2022-12-06T11:55:05.170Z,62.10
2022-12-06T11:57:39.763Z,62.20
2022-12-06T12:00:16.229Z,62.30
2022-12-06T12:02:47.531Z,62.40
2022-12-06T12:05:23.088Z,62.30
2022-12-06T12:07:57.762Z,62.20
2022-12-06T12:10:35.138Z,62.00
2022-12-06T12:13:40.304Z,62.10
2022-12-06T12:16:18.773Z,62.10
2022-12-06T12:18:56.423Z,62.10
2022-12-06T12:21:36.338Z,62.20
2022-12-06T12:24:06.884Z,62.20
2022-12-06T12:26:42.889Z,62.20
2022-12-06T12:29:20.494Z,62.30
2022-12-06T12:31:56.793Z,62.30
2022-12-06T12:34:27.957Z,62.30
2022-12-06T12:37:00.380Z,62.30
2022-12-06T12:39:35.580Z,62.30
2022-12-06T12:42:05.253Z,62.40
2022-12-06T12:44:38.641Z,62.40
2022-12-06T12:47:19.818Z,62.30
2022-12-06T12:50:03.112Z,62.30
2022-12-06T12:52:37.719Z,62.40
2022-12-06T12:55:18.716Z,62.30
2022-12-06T12:57:50.908Z,62.20
2022-12-06T13:00:23.690Z,62.10
2022-12-06T13:02:58.795Z,62.00
2022-12-06T13:05:33.868Z,62.10
2022-12-06T13:08:13.164Z,62.30
2022-12-06T13:10:47.878Z,62.20
2022-12-06T13:13:21.935Z,62.30
2022-12-06T13:15:54.076Z,62.40
2022-12-06T13:18:27.722Z,62.40
2022-12-06T13:20:59.378Z,62.40
2022-12-06T13:23:33.906Z,62.40
2022-12-06T13:26:15.549Z,62.40
2022-12-06T13:28:49.518Z,62.30
2022-12-06T13:31:22.249Z,62.40
2022-12-06T13:33:56.601Z,62.30
2022-12-06T13:36:26.230Z,62.40
2022-12-06T13:38:56.128Z,62.40
2022-12-06T13:42:14.663Z,62.40
2022-12-06T13:44:49.585Z,62.20
2022-12-06T13:47:52.239Z,62.10
2022-12-06T13:50:52.411Z,62.20
2022-12-06T13:53:22.553Z,62.30
2022-12-06T13:56:00.870Z,62.30
2022-12-06T13:58:52.471Z,62.30
2022-12-06T14:01:43.618Z,63.10
2022-12-06T14:09:43.206Z,62.30
2022-12-06T14:12:19.993Z,62.30
2022-12-06T14:14:58.056Z,62.30
2022-12-06T14:18:00.739Z,62.30
2022-12-06T14:20:23.733Z,62.40
2022-12-06T14:22:53.797Z,62.50
2022-12-06T14:25:25.495Z,62.50
2022-12-06T14:28:04.939Z,62.60
2022-12-06T14:30:33.718Z,62.60
2022-12-06T14:33:02.420Z,62.40
2022-12-06T14:35:36.167Z,62.40
2022-12-06T14:38:23.577Z,62.40
2022-12-06T14:41:11.093Z,62.40
2022-12-06T14:43:42.321Z,62.40
2022-12-06T14:46:15.785Z,62.30
2022-12-06T14:49:03.036Z,62.20
2022-12-06T14:51:38.631Z,62.20
2022-12-06T14:54:33.979Z,62.30
2022-12-06T14:57:03.074Z,62.40
2022-12-06T15:00:13.960Z,62.30
2022-12-06T15:02:24.778Z,62.30
2022-12-06T15:04:53.830Z,62.30
2022-12-06T15:07:49.470Z,62.30
2022-12-06T15:10:30.057Z,62.40
2022-12-06T15:13:16.348Z,62.50
2022-12-06T15:15:48.086Z,62.50
2022-12-06T15:18:24.913Z,62.50
2022-12-06T15:20:54.432Z,62.50
2022-12-06T15:23:38.225Z,62.60
2022-12-06T15:26:12.706Z,62.60
2022-12-06T15:28:42.152Z,62.50
2022-12-06T15:31:18.892Z,62.60
2022-12-06T15:33:48.176Z,62.70
2022-12-06T15:36:23.298Z,62.70
2022-12-06T15:38:52.219Z,62.90
2022-12-06T15:41:24.667Z,62.80
2022-12-06T15:43:54.323Z,62.80
2022-12-06T15:46:25.709Z,62.80
2022-12-06T15:48:55.851Z,62.90
2022-12-06T15:51:27.134Z,62.70
2022-12-06T15:53:58.557Z,62.60
2022-12-06T15:56:31.311Z,62.60
2022-12-06T15:59:00.000Z,62.70
2022-12-06T16:01:32.770Z,62.70
2022-12-06T16:04:01.465Z,62.80
2022-12-06T16:06:30.715Z,63.10
2022-12-06T16:08:59.296Z,62.60
2022-12-06T16:11:29.145Z,62.60
2022-12-06T16:13:57.808Z,62.60
2022-12-06T16:16:26.440Z,62.70
2022-12-06T16:18:55.245Z,62.70
2022-12-06T16:21:28.311Z,62.50
2022-12-06T16:24:12.942Z,62.50
2022-12-06T16:26:45.288Z,62.50
2022-12-06T16:29:17.122Z,62.50
2022-12-06T16:31:46.273Z,62.60
2022-12-06T16:34:15.551Z,62.60
2022-12-06T16:37:01.374Z,62.60
2022-12-06T16:39:33.581Z,62.60
2022-12-06T16:42:05.718Z,62.60
2022-12-06T16:44:50.905Z,62.70
2022-12-06T16:49:49.314Z,62.80
2022-12-06T16:52:18.629Z,62.90
2022-12-06T16:54:47.212Z,62.90
2022-12-06T16:57:19.517Z,62.90
2022-12-06T16:59:48.310Z,62.90
2022-12-06T17:02:27.617Z,63.00
2022-12-06T17:04:56.929Z,63.00
2022-12-06T17:07:25.560Z,63.00
2022-12-06T17:09:54.567Z,63.00
2022-12-06T17:12:24.702Z,63.00
2022-12-06T17:14:53.645Z,63.00
2022-12-06T17:17:26.049Z,63.00
2022-12-06T17:19:56.208Z,62.90
2022-12-06T17:22:25.114Z,62.90
2022-12-06T17:24:53.694Z,62.90
2022-12-06T17:27:23.715Z,62.80
2022-12-06T17:29:52.291Z,62.90
2022-12-06T17:32:21.078Z,62.90
2022-12-06T17:34:49.731Z,62.90
2022-12-06T17:37:18.295Z,62.90
2022-12-06T17:39:48.532Z,63.10
2022-12-06T17:42:34.314Z,63.00
2022-12-06T17:45:04.853Z,62.90
2022-12-06T17:47:33.835Z,63.00
2022-12-06T17:50:02.854Z,63.10
2022-12-06T17:52:34.225Z,63.10
2022-12-06T17:55:03.006Z,63.10
2022-12-06T17:57:31.731Z,63.10
2022-12-06T18:00:00.253Z,63.10
2022-12-06T18:02:30.378Z,63.20
2022-12-06T18:04:59.564Z,63.10
2022-12-06T18:07:28.349Z,63.20
2022-12-06T18:09:56.992Z,63.20
2022-12-06T18:12:26.511Z,63.20
2022-12-06T18:14:56.881Z,63.10
2022-12-06T18:17:25.497Z,63.10
2022-12-06T18:19:55.447Z,63.10
2022-12-06T18:22:24.098Z,63.10
2022-12-06T18:24:52.669Z,63.10
2022-12-06T18:27:21.266Z,63.10
2022-12-06T18:29:49.866Z,63.20
2022-12-06T18:32:18.463Z,63.30
2022-12-06T18:34:47.030Z,63.20
2022-12-06T18:37:16.994Z,63.20
2022-12-06T18:39:45.926Z,63.30
2022-12-06T18:42:14.364Z,64.10
2022-12-06T18:44:42.947Z,63.30
2022-12-06T18:47:11.468Z,63.40
2022-12-06T18:49:40.018Z,63.30
2022-12-06T18:52:08.598Z,63.30
2022-12-06T18:54:38.659Z,64.20
2022-12-06T18:57:07.464Z,63.30
2022-12-06T18:59:37.704Z,63.30
2022-12-06T19:02:06.395Z,63.30
2022-12-06T19:04:34.996Z,63.30
2022-12-06T19:07:03.596Z,63.40
2022-12-06T19:09:32.238Z,63.30
2022-12-06T19:12:02.859Z,63.40
2022-12-06T19:14:31.446Z,63.40
2022-12-06T19:17:00.026Z,63.40
2022-12-06T19:19:28.853Z,63.50
2022-12-06T19:21:58.160Z,63.70
2022-12-06T19:24:28.651Z,63.40
2022-12-06T19:26:59.117Z,63.40
2022-12-06T19:29:30.118Z,63.50
2022-12-06T19:31:58.692Z,63.40
2022-12-06T19:34:28.277Z,63.40
2022-12-06T19:36:58.108Z,63.40
2022-12-06T19:39:27.072Z,63.50
2022-12-06T19:42:13.223Z,63.40
2022-12-06T19:44:43.533Z,63.40
2022-12-06T19:47:13.681Z,63.50
2022-12-06T19:49:42.513Z,63.40
2022-12-06T19:52:11.159Z,63.50
2022-12-06T19:54:40.281Z,63.50
2022-12-06T19:57:09.067Z,63.50
2022-12-06T19:59:40.286Z,63.50
2022-12-06T20:02:12.909Z,63.40
2022-12-06T20:04:44.014Z,63.40
2022-12-06T20:07:12.646Z,63.40
2022-12-06T20:09:41.382Z,63.30
2022-12-06T20:12:09.936Z,63.30
2022-12-06T20:14:41.735Z,63.30
2022-12-06T20:17:14.401Z,63.40
2022-12-06T20:19:46.206Z,63.40
2022-12-06T20:22:15.944Z,63.40
2022-12-06T20:24:44.878Z,63.40
2022-12-06T20:27:13.672Z,63.40
2022-12-06T20:29:42.485Z,63.40
2022-12-06T20:32:12.542Z,63.30
2022-12-06T20:34:41.122Z,63.30
2022-12-06T20:37:10.464Z,63.30
2022-12-06T20:39:39.259Z,63.30
2022-12-06T20:42:07.931Z,63.30
2022-12-06T20:44:37.073Z,63.30
2022-12-06T20:47:06.069Z,63.50
2022-12-06T20:49:36.176Z,63.40
2022-12-06T20:52:06.849Z,63.50
2022-12-06T20:54:35.468Z,63.40
2022-12-06T20:57:08.433Z,63.40
2022-12-06T20:59:38.030Z,63.40
2022-12-06T21:02:07.405Z,63.40
2022-12-06T21:04:37.504Z,63.50
2022-12-06T21:07:06.646Z,63.50
2022-12-06T21:09:35.168Z,63.50
2022-12-06T21:12:03.755Z,63.50
2022-12-06T21:14:32.584Z,63.60
2022-12-06T21:17:01.153Z,63.60
2022-12-06T21:19:29.660Z,63.50
2022-12-06T21:22:01.263Z,63.50
2022-12-06T21:24:29.818Z,63.60
2022-12-06T21:26:58.446Z,63.60
2022-12-06T21:29:30.889Z,63.70
2022-12-06T21:32:02.385Z,63.70
2022-12-06T21:34:30.969Z,63.80
2022-12-06T21:37:01.018Z,63.80
2022-12-06T21:39:29.563Z,63.80
2022-12-06T21:41:58.135Z,63.80
2022-12-06T21:44:26.736Z,63.70
2022-12-06T21:46:55.966Z,63.80
2022-12-06T21:49:24.844Z,63.80
2022-12-06T21:52:01.065Z,63.80
2022-12-06T21:54:33.137Z,63.80
2022-12-06T21:57:01.738Z,63.80
2022-12-06T21:59:30.433Z,63.90
2022-12-06T22:01:59.026Z,63.80
2022-12-06T22:04:27.664Z,63.80
2022-12-06T22:06:56.170Z,63.80
2022-12-06T22:09:24.701Z,63.90
2022-12-06T22:11:54.909Z,63.90
2022-12-06T22:14:23.905Z,63.90
2022-12-06T22:16:52.603Z,63.90
2022-12-06T22:19:21.779Z,63.80
2022-12-06T22:21:50.352Z,63.70
2022-12-06T22:24:18.926Z,63.70
2022-12-06T22:26:47.984Z,63.80
2022-12-06T22:29:18.099Z,63.70
2022-12-06T22:31:46.731Z,63.70
2022-12-06T22:34:15.381Z,63.70
2022-12-06T22:36:43.979Z,63.70
2022-12-06T22:39:13.238Z,63.80
2022-12-06T22:41:41.893Z,63.90
2022-12-06T22:44:11.778Z,63.80
2022-12-06T22:46:41.920Z,63.70
2022-12-06T22:49:17.692Z,63.90
2022-12-06T22:51:46.954Z,63.60
2022-12-06T22:54:16.314Z,63.50
2022-12-06T22:56:48.489Z,63.60
2022-12-06T22:59:18.922Z,63.60
2022-12-06T23:01:49.294Z,63.60
2022-12-06T23:04:18.027Z,63.60
2022-12-06T23:06:47.167Z,63.60
2022-12-06T23:09:17.345Z,63.50
2022-12-06T23:11:46.029Z,63.60
2022-12-06T23:14:14.619Z,63.60
2022-12-06T23:16:45.160Z,63.50
2022-12-06T23:19:15.537Z,63.50
2022-12-06T23:21:44.120Z,63.60
2022-12-06T23:24:14.395Z,63.50
2022-12-06T23:26:46.734Z,63.90
2022-12-06T23:29:15.807Z,63.50
2022-12-06T23:31:46.544Z,63.50
2022-12-06T23:34:20.498Z,63.60
2022-12-06T23:36:49.901Z,63.60
2022-12-06T23:39:18.897Z,63.60
2022-12-06T23:41:47.525Z,63.60
2022-12-06T23:44:16.377Z,64.20
2022-12-06T23:46:46.060Z,63.40
2022-12-06T23:49:20.368Z,63.40
2022-12-06T23:51:50.083Z,63.40
2022-12-06T23:54:19.847Z,63.50
2022-12-06T23:56:48.748Z,63.60
2022-12-06T23:59:19.266Z,63.60
